sensor_id;sensor_type;location;lat;lon;timestamp;P1;durP1;ratioP1;P2;durP2;ratioP2
60086;SDS011;45960;53.630;55.972;2023-03-12T00:00:23;6.50;;;3.20;;
60086;SDS011;45960;53.630;55.972;2023-03-12T00:01:25;11.63;;;3.92;;
60086;SDS011;45960;53.630;55.972;2023-03-12T00:02:26;6.47;;;3.25;;
60086;SDS011;45960;53.630;55.972;2023-03-12T00:03:27;8.93;;;3.17;;
60086;SDS011;45960;53.630;55.972;2023-03-12T00:04:30;8.45;;;3.22;;
60086;SDS011;45960;53.630;55.972;2023-03-12T00:05:31;11.50;;;3.45;;
60086;SDS011;45960;53.630;55.972;2023-03-12T00:06:33;7.55;;;3.78;;
60086;SDS011;45960;53.630;55.972;2023-03-12T00:07:34;6.88;;;3.40;;
60086;SDS011;45960;53.630;55.972;2023-03-12T00:08:35;10.13;;;3.60;;
60086;SDS011;45960;53.630;55.972;2023-03-12T00:09:37;9.80;;;4.53;;
60086;SDS011;45960;53.630;55.972;2023-03-12T00:10:39;8.90;;;3.30;;
60086;SDS011;45960;53.630;55.972;2023-03-12T00:11:40;5.90;;;3.17;;
60086;SDS011;45960;53.630;55.972;2023-03-12T00:12:41;6.55;;;3.50;;
60086;SDS011;45960;53.630;55.972;2023-03-12T00:13:42;7.22;;;3.78;;
60086;SDS011;45960;53.630;55.972;2023-03-12T00:14:43;9.10;;;3.60;;
60086;SDS011;45960;53.630;55.972;2023-03-12T00:15:44;7.38;;;3.28;;
60086;SDS011;45960;53.630;55.972;2023-03-12T00:16:46;7.50;;;2.95;;
60086;SDS011;45960;53.630;55.972;2023-03-12T00:17:47;9.63;;;3.55;;
60086;SDS011;45960;53.630;55.972;2023-03-12T00:18:48;7.07;;;3.28;;
60086;SDS011;45960;53.630;55.972;2023-03-12T00:19:53;7.32;;;3.80;;
60086;SDS011;45960;53.630;55.972;2023-03-12T00:20:54;11.27;;;3.85;;
60086;SDS011;45960;53.630;55.972;2023-03-12T00:21:56;6.55;;;3.03;;
60086;SDS011;45960;53.630;55.972;2023-03-12T00:22:57;9.85;;;3.08;;
60086;SDS011;45960;53.630;55.972;2023-03-12T00:23:58;9.00;;;3.88;;
60086;SDS011;45960;53.630;55.972;2023-03-12T00:24:59;7.95;;;4.18;;
60086;SDS011;45960;53.630;55.972;2023-03-12T00:26:00;10.57;;;3.40;;
60086;SDS011;45960;53.630;55.972;2023-03-12T00:27:06;6.13;;;3.75;;
60086;SDS011;45960;53.630;55.972;2023-03-12T00:28:07;10.52;;;4.38;;
60086;SDS011;45960;53.630;55.972;2023-03-12T00:29:08;7.32;;;4.82;;
60086;SDS011;45960;53.630;55.972;2023-03-12T00:30:09;7.00;;;3.67;;
60086;SDS011;45960;53.630;55.972;2023-03-12T00:31:24;12.68;;;5.18;;
60086;SDS011;45960;53.630;55.972;2023-03-12T00:32:28;11.48;;;4.65;;
60086;SDS011;45960;53.630;55.972;2023-03-12T00:33:29;5.82;;;3.58;;
60086;SDS011;45960;53.630;55.972;2023-03-12T00:34:30;5.97;;;3.45;;
60086;SDS011;45960;53.630;55.972;2023-03-12T00:35:31;6.05;;;3.72;;
60086;SDS011;45960;53.630;55.972;2023-03-12T00:36:32;7.13;;;4.00;;
60086;SDS011;45960;53.630;55.972;2023-03-12T00:37:34;10.18;;;4.68;;
60086;SDS011;45960;53.630;55.972;2023-03-12T00:38:37;7.47;;;3.75;;
60086;SDS011;45960;53.630;55.972;2023-03-12T00:40:59;5.43;;;3.05;;
60086;SDS011;45960;53.630;55.972;2023-03-12T00:42:00;5.97;;;3.90;;
60086;SDS011;45960;53.630;55.972;2023-03-12T00:43:01;5.90;;;3.33;;
60086;SDS011;45960;53.630;55.972;2023-03-12T00:44:02;7.43;;;3.25;;
60086;SDS011;45960;53.630;55.972;2023-03-12T00:45:03;6.90;;;3.20;;
60086;SDS011;45960;53.630;55.972;2023-03-12T00:46:05;6.85;;;3.40;;
60086;SDS011;45960;53.630;55.972;2023-03-12T00:47:06;5.85;;;2.67;;
60086;SDS011;45960;53.630;55.972;2023-03-12T00:48:07;12.93;;;3.35;;
60086;SDS011;45960;53.630;55.972;2023-03-12T00:49:08;6.82;;;3.58;;
60086;SDS011;45960;53.630;55.972;2023-03-12T00:50:11;10.23;;;3.60;;
60086;SDS011;45960;53.630;55.972;2023-03-12T00:51:12;8.15;;;3.45;;
60086;SDS011;45960;53.630;55.972;2023-03-12T00:52:13;5.95;;;3.28;;
60086;SDS011;45960;53.630;55.972;2023-03-12T00:53:14;6.32;;;3.45;;
60086;SDS011;45960;53.630;55.972;2023-03-12T00:54:16;5.05;;;3.30;;
60086;SDS011;45960;53.630;55.972;2023-03-12T00:55:17;5.32;;;2.85;;
60086;SDS011;45960;53.630;55.972;2023-03-12T00:56:18;7.15;;;3.58;;
60086;SDS011;45960;53.630;55.972;2023-03-12T00:57:19;8.38;;;4.18;;
60086;SDS011;45960;53.630;55.972;2023-03-12T00:58:20;7.25;;;3.85;;
60086;SDS011;45960;53.630;55.972;2023-03-12T00:59:21;6.90;;;4.15;;
60086;SDS011;45960;53.630;55.972;2023-03-12T01:00:22;7.22;;;3.75;;
60086;SDS011;45960;53.630;55.972;2023-03-12T01:01:24;8.45;;;4.03;;
60086;SDS011;45960;53.630;55.972;2023-03-12T01:02:27;9.07;;;4.22;;
60086;SDS011;45960;53.630;55.972;2023-03-12T01:03:28;8.63;;;3.78;;
60086;SDS011;45960;53.630;55.972;2023-03-12T01:04:29;7.18;;;3.55;;
60086;SDS011;45960;53.630;55.972;2023-03-12T01:05:30;11.07;;;4.10;;
60086;SDS011;45960;53.630;55.972;2023-03-12T01:06:31;6.53;;;3.50;;
60086;SDS011;45960;53.630;55.972;2023-03-12T01:07:33;8.98;;;3.28;;
60086;SDS011;45960;53.630;55.972;2023-03-12T01:08:35;6.38;;;3.85;;
60086;SDS011;45960;53.630;55.972;2023-03-12T01:09:37;8.75;;;3.65;;
60086;SDS011;45960;53.630;55.972;2023-03-12T01:10:40;5.63;;;3.47;;
60086;SDS011;45960;53.630;55.972;2023-03-12T01:11:42;6.90;;;4.22;;
60086;SDS011;45960;53.630;55.972;2023-03-12T01:12:43;4.72;;;2.83;;
60086;SDS011;45960;53.630;55.972;2023-03-12T01:13:44;5.22;;;2.85;;
60086;SDS011;45960;53.630;55.972;2023-03-12T01:14:46;6.18;;;3.95;;
60086;SDS011;45960;53.630;55.972;2023-03-12T01:15:47;5.10;;;3.10;;
60086;SDS011;45960;53.630;55.972;2023-03-12T01:16:49;6.95;;;2.70;;
60086;SDS011;45960;53.630;55.972;2023-03-12T01:17:50;8.73;;;3.67;;
60086;SDS011;45960;53.630;55.972;2023-03-12T01:18:51;6.55;;;3.30;;
60086;SDS011;45960;53.630;55.972;2023-03-12T01:19:52;6.68;;;3.42;;
60086;SDS011;45960;53.630;55.972;2023-03-12T01:20:53;6.45;;;3.13;;
60086;SDS011;45960;53.630;55.972;2023-03-12T01:21:54;11.15;;;3.33;;
60086;SDS011;45960;53.630;55.972;2023-03-12T01:22:55;9.15;;;3.90;;
60086;SDS011;45960;53.630;55.972;2023-03-12T01:23:56;8.25;;;4.03;;
60086;SDS011;45960;53.630;55.972;2023-03-12T01:24:57;5.45;;;3.05;;
60086;SDS011;45960;53.630;55.972;2023-03-12T01:25:58;6.80;;;3.08;;
60086;SDS011;45960;53.630;55.972;2023-03-12T01:26:59;8.82;;;3.20;;
60086;SDS011;45960;53.630;55.972;2023-03-12T01:28:00;5.20;;;2.92;;
60086;SDS011;45960;53.630;55.972;2023-03-12T01:29:02;6.82;;;3.42;;
60086;SDS011;45960;53.630;55.972;2023-03-12T01:30:03;4.82;;;3.13;;
60086;SDS011;45960;53.630;55.972;2023-03-12T01:31:08;7.75;;;3.33;;
60086;SDS011;45960;53.630;55.972;2023-03-12T01:32:11;4.88;;;3.08;;
60086;SDS011;45960;53.630;55.972;2023-03-12T01:33:13;7.38;;;3.22;;
60086;SDS011;45960;53.630;55.972;2023-03-12T01:34:15;6.10;;;2.70;;
60086;SDS011;45960;53.630;55.972;2023-03-12T01:35:16;9.35;;;2.92;;
60086;SDS011;45960;53.630;55.972;2023-03-12T01:36:18;6.95;;;3.35;;
60086;SDS011;45960;53.630;55.972;2023-03-12T01:37:20;5.72;;;3.38;;
60086;SDS011;45960;53.630;55.972;2023-03-12T01:38:21;4.00;;;2.78;;
60086;SDS011;45960;53.630;55.972;2023-03-12T01:39:22;4.72;;;3.03;;
60086;SDS011;45960;53.630;55.972;2023-03-12T01:40:25;6.95;;;2.97;;
60086;SDS011;45960;53.630;55.972;2023-03-12T01:41:30;6.03;;;2.70;;
60086;SDS011;45960;53.630;55.972;2023-03-12T01:42:32;7.05;;;3.13;;
60086;SDS011;45960;53.630;55.972;2023-03-12T01:43:34;9.15;;;3.42;;
60086;SDS011;45960;53.630;55.972;2023-03-12T01:47:26;7.57;;;2.92;;
60086;SDS011;45960;53.630;55.972;2023-03-12T01:48:49;5.50;;;3.22;;
60086;SDS011;45960;53.630;55.972;2023-03-12T01:49:57;3.88;;;2.63;;
60086;SDS011;45960;53.630;55.972;2023-03-12T01:51:00;6.25;;;2.60;;
60086;SDS011;45960;53.630;55.972;2023-03-12T01:52:03;13.45;;;3.03;;
60086;SDS011;45960;53.630;55.972;2023-03-12T01:53:27;3.78;;;2.47;;
60086;SDS011;45960;53.630;55.972;2023-03-12T01:55:37;6.45;;;2.63;;
60086;SDS011;45960;53.630;55.972;2023-03-12T01:56:38;5.45;;;2.72;;
60086;SDS011;45960;53.630;55.972;2023-03-12T01:57:42;4.85;;;3.00;;
60086;SDS011;45960;53.630;55.972;2023-03-12T01:58:49;8.10;;;3.05;;
60086;SDS011;45960;53.630;55.972;2023-03-12T01:59:55;4.80;;;2.75;;
60086;SDS011;45960;53.630;55.972;2023-03-12T02:00:59;3.28;;;2.70;;
60086;SDS011;45960;53.630;55.972;2023-03-12T02:02:00;5.55;;;2.78;;
60086;SDS011;45960;53.630;55.972;2023-03-12T02:03:06;4.30;;;2.75;;
60086;SDS011;45960;53.630;55.972;2023-03-12T02:04:11;4.88;;;3.00;;
60086;SDS011;45960;53.630;55.972;2023-03-12T02:05:16;4.28;;;2.72;;
60086;SDS011;45960;53.630;55.972;2023-03-12T02:07:43;3.97;;;2.33;;
60086;SDS011;45960;53.630;55.972;2023-03-12T02:08:44;4.55;;;3.22;;
60086;SDS011;45960;53.630;55.972;2023-03-12T02:09:48;4.13;;;2.00;;
60086;SDS011;45960;53.630;55.972;2023-03-12T02:10:49;4.13;;;2.15;;
60086;SDS011;45960;53.630;55.972;2023-03-12T02:11:50;8.60;;;3.00;;
60086;SDS011;45960;53.630;55.972;2023-03-12T02:12:53;3.67;;;2.63;;
60086;SDS011;45960;53.630;55.972;2023-03-12T02:13:54;10.80;;;2.45;;
60086;SDS011;45960;53.630;55.972;2023-03-12T02:14:56;11.13;;;3.28;;
60086;SDS011;45960;53.630;55.972;2023-03-12T02:15:57;4.60;;;3.05;;
60086;SDS011;45960;53.630;55.972;2023-03-12T02:16:59;5.00;;;2.60;;
60086;SDS011;45960;53.630;55.972;2023-03-12T02:18:04;5.28;;;2.45;;
60086;SDS011;45960;53.630;55.972;2023-03-12T02:19:15;5.32;;;3.15;;
60086;SDS011;45960;53.630;55.972;2023-03-12T02:21:57;5.15;;;2.17;;
60086;SDS011;45960;53.630;55.972;2023-03-12T02:23:04;3.78;;;2.25;;
60086;SDS011;45960;53.630;55.972;2023-03-12T02:25:23;4.22;;;2.10;;
60086;SDS011;45960;53.630;55.972;2023-03-12T02:26:39;3.97;;;2.13;;
60086;SDS011;45960;53.630;55.972;2023-03-12T02:27:41;4.00;;;2.42;;
60086;SDS011;45960;53.630;55.972;2023-03-12T02:28:42;2.63;;;2.03;;
60086;SDS011;45960;53.630;55.972;2023-03-12T02:29:45;5.38;;;2.65;;
60086;SDS011;45960;53.630;55.972;2023-03-12T02:30:48;3.88;;;2.50;;
60086;SDS011;45960;53.630;55.972;2023-03-12T02:31:51;4.85;;;2.70;;
60086;SDS011;45960;53.630;55.972;2023-03-12T02:33:00;8.32;;;2.97;;
60086;SDS011;45960;53.630;55.972;2023-03-12T02:34:05;5.18;;;2.50;;
60086;SDS011;45960;53.630;55.972;2023-03-12T02:35:06;6.13;;;2.78;;
60086;SDS011;45960;53.630;55.972;2023-03-12T02:36:08;4.88;;;2.70;;
60086;SDS011;45960;53.630;55.972;2023-03-12T02:37:09;7.00;;;2.90;;
60086;SDS011;45960;53.630;55.972;2023-03-12T02:39:29;5.68;;;2.30;;
60086;SDS011;45960;53.630;55.972;2023-03-12T02:41:39;5.35;;;2.78;;
60086;SDS011;45960;53.630;55.972;2023-03-12T02:42:44;4.93;;;2.40;;
60086;SDS011;45960;53.630;55.972;2023-03-12T02:44:04;3.47;;;2.30;;
60086;SDS011;45960;53.630;55.972;2023-03-12T02:45:07;7.03;;;2.63;;
60086;SDS011;45960;53.630;55.972;2023-03-12T02:46:09;4.45;;;2.80;;
60086;SDS011;45960;53.630;55.972;2023-03-12T02:47:10;4.70;;;2.63;;
60086;SDS011;45960;53.630;55.972;2023-03-12T02:48:11;4.72;;;2.22;;
60086;SDS011;45960;53.630;55.972;2023-03-12T02:49:13;5.18;;;2.55;;
60086;SDS011;45960;53.630;55.972;2023-03-12T02:50:15;3.40;;;2.38;;
60086;SDS011;45960;53.630;55.972;2023-03-12T02:51:16;4.78;;;2.80;;
60086;SDS011;45960;53.630;55.972;2023-03-12T02:52:17;2.28;;;1.83;;
60086;SDS011;45960;53.630;55.972;2023-03-12T02:53:18;6.40;;;3.35;;
60086;SDS011;45960;53.630;55.972;2023-03-12T02:54:19;3.15;;;2.08;;
60086;SDS011;45960;53.630;55.972;2023-03-12T02:55:22;7.70;;;2.70;;
60086;SDS011;45960;53.630;55.972;2023-03-12T02:56:24;4.40;;;2.45;;
60086;SDS011;45960;53.630;55.972;2023-03-12T02:57:26;7.05;;;2.55;;
60086;SDS011;45960;53.630;55.972;2023-03-12T02:58:28;7.07;;;3.50;;
60086;SDS011;45960;53.630;55.972;2023-03-12T02:59:29;4.00;;;3.15;;
60086;SDS011;45960;53.630;55.972;2023-03-12T03:00:32;5.18;;;3.45;;
60086;SDS011;45960;53.630;55.972;2023-03-12T03:01:33;6.65;;;4.05;;
60086;SDS011;45960;53.630;55.972;2023-03-12T03:02:35;8.30;;;4.25;;
60086;SDS011;45960;53.630;55.972;2023-03-12T03:03:36;4.45;;;3.08;;
60086;SDS011;45960;53.630;55.972;2023-03-12T03:04:37;4.78;;;2.40;;
60086;SDS011;45960;53.630;55.972;2023-03-12T03:05:38;4.53;;;2.53;;
60086;SDS011;45960;53.630;55.972;2023-03-12T03:06:40;4.22;;;2.30;;
60086;SDS011;45960;53.630;55.972;2023-03-12T03:07:43;7.47;;;3.50;;
60086;SDS011;45960;53.630;55.972;2023-03-12T03:08:44;7.75;;;3.03;;
60086;SDS011;45960;53.630;55.972;2023-03-12T03:09:45;5.10;;;2.70;;
60086;SDS011;45960;53.630;55.972;2023-03-12T03:10:46;5.80;;;2.58;;
60086;SDS011;45960;53.630;55.972;2023-03-12T03:11:50;5.13;;;3.40;;
60086;SDS011;45960;53.630;55.972;2023-03-12T03:12:51;6.55;;;3.15;;
60086;SDS011;45960;53.630;55.972;2023-03-12T03:13:52;5.10;;;3.33;;
60086;SDS011;45960;53.630;55.972;2023-03-12T03:14:55;4.22;;;2.70;;
60086;SDS011;45960;53.630;55.972;2023-03-12T03:15:56;5.05;;;3.17;;
60086;SDS011;45960;53.630;55.972;2023-03-12T03:16:59;4.07;;;3.30;;
60086;SDS011;45960;53.630;55.972;2023-03-12T03:18:00;4.75;;;3.25;;
60086;SDS011;45960;53.630;55.972;2023-03-12T03:19:03;4.57;;;2.83;;
60086;SDS011;45960;53.630;55.972;2023-03-12T03:20:05;9.32;;;2.60;;
60086;SDS011;45960;53.630;55.972;2023-03-12T03:21:10;3.90;;;2.50;;
60086;SDS011;45960;53.630;55.972;2023-03-12T03:22:16;7.60;;;3.92;;
60086;SDS011;45960;53.630;55.972;2023-03-12T03:23:20;3.80;;;2.70;;
60086;SDS011;45960;53.630;55.972;2023-03-12T03:24:21;4.95;;;2.75;;
60086;SDS011;45960;53.630;55.972;2023-03-12T03:25:22;5.07;;;3.15;;
60086;SDS011;45960;53.630;55.972;2023-03-12T03:26:24;10.25;;;2.45;;
60086;SDS011;45960;53.630;55.972;2023-03-12T03:27:26;3.20;;;2.33;;
60086;SDS011;45960;53.630;55.972;2023-03-12T03:28:28;4.40;;;2.40;;
60086;SDS011;45960;53.630;55.972;2023-03-12T03:29:30;5.35;;;3.15;;
60086;SDS011;45960;53.630;55.972;2023-03-12T03:30:32;2.92;;;2.17;;
60086;SDS011;45960;53.630;55.972;2023-03-12T03:31:33;4.10;;;2.60;;
60086;SDS011;45960;53.630;55.972;2023-03-12T03:32:34;6.47;;;2.10;;
60086;SDS011;45960;53.630;55.972;2023-03-12T03:33:37;3.05;;;2.22;;
60086;SDS011;45960;53.630;55.972;2023-03-12T03:34:40;8.07;;;2.60;;
60086;SDS011;45960;53.630;55.972;2023-03-12T03:35:42;6.35;;;2.60;;
60086;SDS011;45960;53.630;55.972;2023-03-12T03:36:43;3.90;;;2.15;;
60086;SDS011;45960;53.630;55.972;2023-03-12T03:37:47;7.38;;;3.15;;
60086;SDS011;45960;53.630;55.972;2023-03-12T03:38:48;5.68;;;2.50;;
60086;SDS011;45960;53.630;55.972;2023-03-12T03:39:51;4.75;;;2.75;;
60086;SDS011;45960;53.630;55.972;2023-03-12T03:40:52;3.97;;;2.53;;
60086;SDS011;45960;53.630;55.972;2023-03-12T03:41:54;7.18;;;3.38;;
60086;SDS011;45960;53.630;55.972;2023-03-12T03:42:58;2.65;;;1.80;;
60086;SDS011;45960;53.630;55.972;2023-03-12T03:43:59;4.72;;;2.38;;
60086;SDS011;45960;53.630;55.972;2023-03-12T03:45:03;3.72;;;2.60;;
60086;SDS011;45960;53.630;55.972;2023-03-12T03:46:05;4.90;;;2.08;;
60086;SDS011;45960;53.630;55.972;2023-03-12T03:47:09;3.35;;;2.17;;
60086;SDS011;45960;53.630;55.972;2023-03-12T03:48:11;4.88;;;2.50;;
60086;SDS011;45960;53.630;55.972;2023-03-12T03:49:12;6.28;;;2.47;;
60086;SDS011;45960;53.630;55.972;2023-03-12T03:50:15;3.42;;;2.33;;
60086;SDS011;45960;53.630;55.972;2023-03-12T03:51:17;3.95;;;2.50;;
60086;SDS011;45960;53.630;55.972;2023-03-12T03:52:21;6.55;;;2.38;;
60086;SDS011;45960;53.630;55.972;2023-03-12T03:53:22;5.35;;;2.60;;
60086;SDS011;45960;53.630;55.972;2023-03-12T03:54:23;6.00;;;3.10;;
60086;SDS011;45960;53.630;55.972;2023-03-12T03:55:24;8.68;;;3.90;;
60086;SDS011;45960;53.630;55.972;2023-03-12T03:56:25;3.50;;;2.70;;
60086;SDS011;45960;53.630;55.972;2023-03-12T03:57:27;5.10;;;3.05;;
60086;SDS011;45960;53.630;55.972;2023-03-12T03:58:29;6.85;;;3.88;;
60086;SDS011;45960;53.630;55.972;2023-03-12T03:59:30;6.15;;;3.75;;
60086;SDS011;45960;53.630;55.972;2023-03-12T04:00:32;6.97;;;3.50;;
60086;SDS011;45960;53.630;55.972;2023-03-12T04:01:34;5.03;;;3.72;;
60086;SDS011;45960;53.630;55.972;2023-03-12T04:02:36;7.97;;;3.58;;
60086;SDS011;45960;53.630;55.972;2023-03-12T04:03:37;4.75;;;3.03;;
60086;SDS011;45960;53.630;55.972;2023-03-12T04:04:38;5.45;;;2.65;;
60086;SDS011;45960;53.630;55.972;2023-03-12T04:05:41;4.13;;;2.95;;
60086;SDS011;45960;53.630;55.972;2023-03-12T04:06:46;4.97;;;3.25;;
60086;SDS011;45960;53.630;55.972;2023-03-12T04:07:48;5.30;;;2.95;;
60086;SDS011;45960;53.630;55.972;2023-03-12T04:08:54;5.30;;;2.60;;
60086;SDS011;45960;53.630;55.972;2023-03-12T04:09:58;5.43;;;3.22;;
60086;SDS011;45960;53.630;55.972;2023-03-12T04:11:07;4.82;;;3.30;;
60086;SDS011;45960;53.630;55.972;2023-03-12T04:12:09;6.10;;;4.07;;
60086;SDS011;45960;53.630;55.972;2023-03-12T04:13:13;6.35;;;3.45;;
60086;SDS011;45960;53.630;55.972;2023-03-12T04:14:14;5.30;;;3.55;;
60086;SDS011;45960;53.630;55.972;2023-03-12T04:15:18;6.13;;;3.88;;
60086;SDS011;45960;53.630;55.972;2023-03-12T04:16:20;5.05;;;3.42;;
60086;SDS011;45960;53.630;55.972;2023-03-12T04:17:22;6.40;;;2.75;;
60086;SDS011;45960;53.630;55.972;2023-03-12T04:18:23;5.93;;;3.60;;
60086;SDS011;45960;53.630;55.972;2023-03-12T04:19:24;4.97;;;2.58;;
60086;SDS011;45960;53.630;55.972;2023-03-12T04:20:25;4.63;;;3.00;;
60086;SDS011;45960;53.630;55.972;2023-03-12T04:21:27;4.15;;;2.40;;
60086;SDS011;45960;53.630;55.972;2023-03-12T04:22:28;3.97;;;2.67;;
60086;SDS011;45960;53.630;55.972;2023-03-12T04:23:29;6.70;;;2.75;;
60086;SDS011;45960;53.630;55.972;2023-03-12T04:24:30;6.55;;;2.88;;
60086;SDS011;45960;53.630;55.972;2023-03-12T04:25:31;5.90;;;2.67;;
60086;SDS011;45960;53.630;55.972;2023-03-12T04:26:32;6.30;;;2.30;;
60086;SDS011;45960;53.630;55.972;2023-03-12T04:27:34;6.15;;;3.22;;
60086;SDS011;45960;53.630;55.972;2023-03-12T04:28:35;4.78;;;2.60;;
60086;SDS011;45960;53.630;55.972;2023-03-12T04:29:38;5.47;;;2.80;;
60086;SDS011;45960;53.630;55.972;2023-03-12T04:30:40;4.80;;;2.70;;
60086;SDS011;45960;53.630;55.972;2023-03-12T04:31:41;4.20;;;2.60;;
60086;SDS011;45960;53.630;55.972;2023-03-12T04:32:42;5.75;;;2.95;;
60086;SDS011;45960;53.630;55.972;2023-03-12T04:33:43;4.95;;;2.90;;
60086;SDS011;45960;53.630;55.972;2023-03-12T04:34:44;6.35;;;3.58;;
60086;SDS011;45960;53.630;55.972;2023-03-12T04:35:53;7.53;;;3.85;;
60086;SDS011;45960;53.630;55.972;2023-03-12T04:36:54;9.30;;;4.22;;
60086;SDS011;45960;53.630;55.972;2023-03-12T04:37:56;9.27;;;4.03;;
60086;SDS011;45960;53.630;55.972;2023-03-12T04:38:58;11.98;;;4.47;;
60086;SDS011;45960;53.630;55.972;2023-03-12T04:40:06;9.57;;;3.85;;
60086;SDS011;45960;53.630;55.972;2023-03-12T04:41:12;7.22;;;3.60;;
60086;SDS011;45960;53.630;55.972;2023-03-12T04:42:21;6.10;;;2.60;;
60086;SDS011;45960;53.630;55.972;2023-03-12T04:43:22;6.65;;;3.45;;
60086;SDS011;45960;53.630;55.972;2023-03-12T04:44:23;7.18;;;3.03;;
60086;SDS011;45960;53.630;55.972;2023-03-12T04:45:25;11.52;;;3.70;;
60086;SDS011;45960;53.630;55.972;2023-03-12T04:46:26;9.68;;;3.40;;
60086;SDS011;45960;53.630;55.972;2023-03-12T04:47:27;14.00;;;4.25;;
60086;SDS011;45960;53.630;55.972;2023-03-12T04:48:30;8.25;;;3.55;;
60086;SDS011;45960;53.630;55.972;2023-03-12T04:49:31;4.72;;;2.38;;
60086;SDS011;45960;53.630;55.972;2023-03-12T04:50:33;3.10;;;2.00;;
60086;SDS011;45960;53.630;55.972;2023-03-12T04:51:34;3.20;;;1.83;;
60086;SDS011;45960;53.630;55.972;2023-03-12T04:52:37;3.55;;;2.03;;
60086;SDS011;45960;53.630;55.972;2023-03-12T04:53:40;3.80;;;2.13;;
60086;SDS011;45960;53.630;55.972;2023-03-12T04:54:43;3.90;;;2.20;;
60086;SDS011;45960;53.630;55.972;2023-03-12T04:55:44;6.25;;;2.33;;
60086;SDS011;45960;53.630;55.972;2023-03-12T04:56:46;3.33;;;2.00;;
60086;SDS011;45960;53.630;55.972;2023-03-12T04:57:47;4.22;;;2.50;;
60086;SDS011;45960;53.630;55.972;2023-03-12T04:58:50;3.90;;;2.20;;
60086;SDS011;45960;53.630;55.972;2023-03-12T04:59:52;4.60;;;2.40;;
60086;SDS011;45960;53.630;55.972;2023-03-12T05:00:53;3.80;;;2.67;;
60086;SDS011;45960;53.630;55.972;2023-03-12T05:01:54;5.97;;;3.08;;
60086;SDS011;45960;53.630;55.972;2023-03-12T05:03:00;3.83;;;2.25;;
60086;SDS011;45960;53.630;55.972;2023-03-12T05:04:01;4.38;;;2.10;;
60086;SDS011;45960;53.630;55.972;2023-03-12T05:05:02;5.97;;;3.17;;
60086;SDS011;45960;53.630;55.972;2023-03-12T05:06:04;5.18;;;2.85;;
60086;SDS011;45960;53.630;55.972;2023-03-12T05:07:05;5.03;;;3.00;;
60086;SDS011;45960;53.630;55.972;2023-03-12T05:08:06;6.15;;;3.47;;
60086;SDS011;45960;53.630;55.972;2023-03-12T05:09:08;5.38;;;3.33;;
60086;SDS011;45960;53.630;55.972;2023-03-12T05:10:10;6.00;;;2.80;;
60086;SDS011;45960;53.630;55.972;2023-03-12T05:11:12;5.85;;;2.92;;
60086;SDS011;45960;53.630;55.972;2023-03-12T05:12:14;6.80;;;2.75;;
60086;SDS011;45960;53.630;55.972;2023-03-12T05:13:17;5.43;;;2.72;;
60086;SDS011;45960;53.630;55.972;2023-03-12T05:14:21;5.47;;;2.72;;
60086;SDS011;45960;53.630;55.972;2023-03-12T05:15:23;4.55;;;2.90;;
60086;SDS011;45960;53.630;55.972;2023-03-12T05:16:24;8.60;;;3.28;;
60086;SDS011;45960;53.630;55.972;2023-03-12T05:17:25;9.57;;;3.40;;
60086;SDS011;45960;53.630;55.972;2023-03-12T05:18:26;7.93;;;3.67;;
60086;SDS011;45960;53.630;55.972;2023-03-12T05:19:28;7.18;;;3.42;;
60086;SDS011;45960;53.630;55.972;2023-03-12T05:20:29;5.70;;;2.70;;
60086;SDS011;45960;53.630;55.972;2023-03-12T05:21:30;7.10;;;3.13;;
60086;SDS011;45960;53.630;55.972;2023-03-12T05:22:31;5.10;;;2.65;;
60086;SDS011;45960;53.630;55.972;2023-03-12T05:23:33;4.75;;;2.95;;
60086;SDS011;45960;53.630;55.972;2023-03-12T05:24:35;5.40;;;3.10;;
60086;SDS011;45960;53.630;55.972;2023-03-12T05:25:39;8.25;;;3.40;;
60086;SDS011;45960;53.630;55.972;2023-03-12T05:26:41;6.43;;;3.10;;
60086;SDS011;45960;53.630;55.972;2023-03-12T05:27:45;7.97;;;3.47;;
60086;SDS011;45960;53.630;55.972;2023-03-12T05:28:47;7.20;;;3.83;;
60086;SDS011;45960;53.630;55.972;2023-03-12T05:29:51;8.82;;;3.47;;
60086;SDS011;45960;53.630;55.972;2023-03-12T05:30:54;7.03;;;3.35;;
60086;SDS011;45960;53.630;55.972;2023-03-12T05:31:57;5.97;;;3.25;;
60086;SDS011;45960;53.630;55.972;2023-03-12T05:32:59;4.80;;;2.58;;
60086;SDS011;45960;53.630;55.972;2023-03-12T05:34:01;7.45;;;3.47;;
60086;SDS011;45960;53.630;55.972;2023-03-12T05:35:03;5.22;;;2.75;;
60086;SDS011;45960;53.630;55.972;2023-03-12T05:36:04;7.63;;;2.53;;
60086;SDS011;45960;53.630;55.972;2023-03-12T05:37:06;5.72;;;2.75;;
60086;SDS011;45960;53.630;55.972;2023-03-12T05:38:07;5.32;;;2.70;;
60086;SDS011;45960;53.630;55.972;2023-03-12T05:39:08;4.65;;;2.60;;
60086;SDS011;45960;53.630;55.972;2023-03-12T05:40:10;4.93;;;3.05;;
60086;SDS011;45960;53.630;55.972;2023-03-12T05:41:19;8.38;;;2.67;;
60086;SDS011;45960;53.630;55.972;2023-03-12T05:42:24;7.78;;;3.72;;
60086;SDS011;45960;53.630;55.972;2023-03-12T05:43:25;6.40;;;2.67;;
60086;SDS011;45960;53.630;55.972;2023-03-12T05:44:27;12.82;;;3.33;;
60086;SDS011;45960;53.630;55.972;2023-03-12T05:45:29;7.20;;;3.60;;
60086;SDS011;45960;53.630;55.972;2023-03-12T05:46:33;7.32;;;3.15;;
60086;SDS011;45960;53.630;55.972;2023-03-12T05:47:34;6.57;;;3.05;;
60086;SDS011;45960;53.630;55.972;2023-03-12T05:48:35;8.43;;;3.13;;
60086;SDS011;45960;53.630;55.972;2023-03-12T05:49:37;7.88;;;3.47;;
60086;SDS011;45960;53.630;55.972;2023-03-12T05:50:38;5.75;;;3.38;;
60086;SDS011;45960;53.630;55.972;2023-03-12T05:51:40;5.20;;;3.08;;
60086;SDS011;45960;53.630;55.972;2023-03-12T05:52:43;11.75;;;3.83;;
60086;SDS011;45960;53.630;55.972;2023-03-12T05:53:44;7.63;;;3.58;;
60086;SDS011;45960;53.630;55.972;2023-03-12T05:54:45;7.13;;;3.20;;
60086;SDS011;45960;53.630;55.972;2023-03-12T05:55:47;7.05;;;4.53;;
60086;SDS011;45960;53.630;55.972;2023-03-12T05:56:48;7.13;;;3.53;;
60086;SDS011;45960;53.630;55.972;2023-03-12T05:57:49;7.57;;;4.10;;
60086;SDS011;45960;53.630;55.972;2023-03-12T05:58:51;6.70;;;3.58;;
60086;SDS011;45960;53.630;55.972;2023-03-12T05:59:53;7.75;;;3.53;;
60086;SDS011;45960;53.630;55.972;2023-03-12T06:00:55;8.48;;;3.13;;
60086;SDS011;45960;53.630;55.972;2023-03-12T06:01:57;7.55;;;2.88;;
60086;SDS011;45960;53.630;55.972;2023-03-12T06:02:59;7.60;;;3.00;;
60086;SDS011;45960;53.630;55.972;2023-03-12T06:04:00;7.78;;;3.72;;
60086;SDS011;45960;53.630;55.972;2023-03-12T06:05:01;9.05;;;3.70;;
60086;SDS011;45960;53.630;55.972;2023-03-12T06:06:02;6.22;;;3.25;;
60086;SDS011;45960;53.630;55.972;2023-03-12T06:07:03;8.48;;;3.58;;
60086;SDS011;45960;53.630;55.972;2023-03-12T06:08:06;10.00;;;3.45;;
60086;SDS011;45960;53.630;55.972;2023-03-12T06:09:08;11.32;;;3.35;;
60086;SDS011;45960;53.630;55.972;2023-03-12T06:10:09;6.20;;;3.08;;
60086;SDS011;45960;53.630;55.972;2023-03-12T06:11:11;11.40;;;3.45;;
60086;SDS011;45960;53.630;55.972;2023-03-12T06:12:12;8.50;;;3.58;;
60086;SDS011;45960;53.630;55.972;2023-03-12T06:13:13;13.18;;;3.53;;
60086;SDS011;45960;53.630;55.972;2023-03-12T06:14:15;8.00;;;3.28;;
60086;SDS011;45960;53.630;55.972;2023-03-12T06:15:16;12.25;;;3.47;;
60086;SDS011;45960;53.630;55.972;2023-03-12T06:16:18;9.15;;;3.72;;
60086;SDS011;45960;53.630;55.972;2023-03-12T06:17:21;6.78;;;3.47;;
60086;SDS011;45960;53.630;55.972;2023-03-12T06:18:22;11.23;;;3.63;;
60086;SDS011;45960;53.630;55.972;2023-03-12T06:19:23;7.93;;;3.63;;
60086;SDS011;45960;53.630;55.972;2023-03-12T06:20:24;10.77;;;3.55;;
60086;SDS011;45960;53.630;55.972;2023-03-12T06:21:27;5.68;;;3.13;;